Hillsdale, North Carolina
Current Conditions -  °F | °C
As of 2:54 AM on Friday 19 Dec 2014 (Local Time) from KINT Reporting Station
Overcast Overcast  
Wind Chill: 40°   Ceiling: 5500
Heat Index: 43°   Visibility: 10mi
Dew Point: 24°   Wind: 5mph
Humidity: 47%   Direction: 340°NNW
Pressure: 30.11"   Gusts: NA
Location:  36.0107°N, 80.4503°W
Report Text: KINT 190754Z AUTO 34004KT 10SM OVC055 06/M04 A3011 RMK AO2 SLP196 T00611044
Loading
Personal Weather Stations






























Interactive Weather Map New forecast layout! Learn more

10-Day Weather Forecast

Advertisements
Track Severe Weather on mobile